createdAt,value
2018-04-26T00:00:52.786Z,0
2018-04-26T00:01:52.142Z,0
2018-04-26T00:02:52.496Z,0
2018-04-26T00:03:51.879Z,0
2018-04-26T00:04:52.598Z,0
2018-04-26T00:05:52.624Z,0
2018-04-26T00:06:52.606Z,0
2018-04-26T00:07:52.661Z,0
2018-04-26T00:08:52.578Z,0
2018-04-26T00:09:52.431Z,0
2018-04-26T00:10:52.713Z,0
2018-04-26T00:11:52.440Z,0
2018-04-26T00:12:52.635Z,0
2018-04-26T00:13:52.802Z,0
2018-04-26T00:14:52.834Z,0
2018-04-26T00:15:52.782Z,0
2018-04-26T00:16:52.506Z,0
2018-04-26T00:17:51.549Z,0
2018-04-26T00:18:51.797Z,0
2018-04-26T00:19:52.297Z,0
2018-04-26T00:20:52.294Z,0
2018-04-26T00:21:51.775Z,0
2018-04-26T00:22:52.290Z,0
2018-04-26T00:23:52.002Z,0
2018-04-26T00:24:51.995Z,0
2018-04-26T00:25:51.988Z,0
2018-04-26T00:26:51.981Z,0
2018-04-26T00:27:51.975Z,0
2018-04-26T00:28:52.215Z,0
2018-04-26T00:29:52.211Z,0
2018-04-26T00:30:52.204Z,0
2018-04-26T00:31:52.205Z,0
2018-04-26T00:32:51.921Z,0
2018-04-26T00:33:51.911Z,0
2018-04-26T00:34:52.154Z,0
2018-04-26T00:35:52.144Z,0
2018-04-26T00:36:52.141Z,0
2018-04-26T00:37:51.877Z,0
2018-04-26T00:38:52.189Z,0
2018-04-26T00:39:52.116Z,0
2018-04-26T00:40:51.835Z,0
2018-04-26T00:41:51.571Z,0
2018-04-26T00:42:51.562Z,0
2018-04-26T00:43:51.550Z,0
2018-04-26T00:44:51.799Z,0
2018-04-26T00:45:51.787Z,0
2018-04-26T00:46:52.045Z,0
2018-04-26T00:47:51.252Z,0
2018-04-26T00:48:51.762Z,0
2018-04-26T00:49:51.489Z,0
2018-04-26T00:50:51.480Z,0
2018-04-26T00:51:51.988Z,0
2018-04-26T00:52:51.458Z,0
2018-04-26T00:53:51.705Z,0
2018-04-26T00:54:51.699Z,0
2018-04-26T00:55:51.700Z,0
2018-04-26T00:56:51.933Z,0
2018-04-26T00:57:51.674Z,0
2018-04-26T00:58:51.656Z,0
2018-04-26T00:59:51.385Z,0
2018-04-26T01:00:51.638Z,0
2018-04-26T01:01:51.972Z,0
2018-04-26T01:02:51.371Z,0
2018-04-26T01:03:51.903Z,0
2018-04-26T01:04:51.609Z,0
2018-04-26T01:05:51.595Z,0
2018-04-26T01:06:51.323Z,0
2018-04-26T01:07:51.858Z,0
2018-04-26T01:08:51.312Z,0
2018-04-26T01:09:51.817Z,0
2018-04-26T01:10:51.560Z,0
2018-04-26T01:11:51.805Z,0
2018-04-26T01:12:51.293Z,0
2018-04-26T01:13:51.260Z,0
2018-04-26T01:14:51.247Z,0
2018-04-26T01:15:51.750Z,0
2018-04-26T01:16:51.481Z,0
2018-04-26T01:17:51.477Z,0
2018-04-26T01:18:51.741Z,0
2018-04-26T01:19:51.454Z,0
2018-04-26T01:20:51.439Z,0
2018-04-26T01:21:51.461Z,0
2018-04-26T01:22:51.417Z,0
2018-04-26T01:23:51.162Z,0
2018-04-26T01:24:51.637Z,0
2018-04-26T01:25:51.648Z,0
2018-04-26T01:26:51.378Z,0
2018-04-26T01:27:51.380Z,0
2018-04-26T01:28:51.631Z,0
2018-04-26T01:29:51.092Z,0
2018-04-26T01:30:51.593Z,0
2018-04-26T01:31:51.322Z,0
2018-04-26T01:32:51.320Z,0
2018-04-26T01:33:50.789Z,0
2018-04-26T01:34:51.304Z,0
2018-04-26T01:35:51.041Z,0
2018-04-26T01:36:51.537Z,0
2018-04-26T01:37:51.007Z,0
2018-04-26T01:38:51.533Z,0
2018-04-26T01:39:51.244Z,0
2018-04-26T01:40:51.449Z,0
2018-04-26T01:41:51.223Z,0
2018-04-26T01:42:51.205Z,0
2018-04-26T01:43:50.943Z,0
2018-04-26T01:44:50.933Z,0
2018-04-26T01:45:51.178Z,0
2018-04-26T01:46:51.457Z,0
2018-04-26T01:47:51.154Z,0
2018-04-26T01:48:50.885Z,0
2018-04-26T01:49:51.134Z,0
2018-04-26T01:50:51.378Z,0
2018-04-26T01:51:50.860Z,0
2018-04-26T01:52:51.107Z,0
2018-04-26T01:53:51.350Z,0
2018-04-26T01:54:50.841Z,0
2018-04-26T01:55:51.333Z,0
2018-04-26T01:56:50.799Z,0
2018-04-26T01:57:50.537Z,0
2018-04-26T01:58:51.059Z,0
2018-04-26T01:59:51.035Z,0
2018-04-26T02:00:50.760Z,0
2018-04-26T02:01:50.492Z,0
2018-04-26T02:02:50.997Z,0
2018-04-26T02:03:51.444Z,0
2018-04-26T02:04:50.972Z,0
2018-04-26T02:05:50.964Z,0
2018-04-26T02:06:50.956Z,0
2018-04-26T02:07:50.683Z,0
2018-04-26T02:08:50.934Z,0
2018-04-26T02:09:50.697Z,0
2018-04-26T02:10:50.658Z,0
2018-04-26T02:11:50.641Z,0
2018-04-26T02:12:50.377Z,0
2018-04-26T02:13:50.886Z,0
2018-04-26T02:14:51.130Z,0
2018-04-26T02:15:51.129Z,0
2018-04-26T02:16:51.061Z,0
2018-04-26T02:17:50.577Z,0
2018-04-26T02:18:50.850Z,0
2018-04-26T02:19:51.076Z,0
2018-04-26T02:20:50.803Z,0
2018-04-26T02:21:50.796Z,0
2018-04-26T02:22:50.800Z,0
2018-04-26T02:23:51.056Z,0
2018-04-26T02:24:50.723Z,0
2018-04-26T02:25:51.016Z,0
2018-04-26T02:26:50.746Z,0
2018-04-26T02:27:50.981Z,0
2018-04-26T02:28:50.721Z,0
2018-04-26T02:29:50.977Z,0
2018-04-26T02:30:50.465Z,0
2018-04-26T02:31:50.691Z,0
2018-04-26T02:32:50.940Z,0
2018-04-26T02:33:50.690Z,0
2018-04-26T02:34:50.668Z,0
2018-04-26T02:35:50.986Z,0
2018-04-26T02:36:50.385Z,0
2018-04-26T02:37:50.627Z,0
2018-04-26T02:38:50.623Z,0
2018-04-26T02:39:50.859Z,0
2018-04-26T02:40:50.557Z,0
2018-04-26T02:41:50.334Z,0
2018-04-26T02:42:50.845Z,0
2018-04-26T02:43:50.574Z,0
2018-04-26T02:44:50.549Z,0
2018-04-26T02:45:50.867Z,0
2018-04-26T02:46:50.018Z,0
2018-04-26T02:47:50.271Z,0
2018-04-26T02:48:50.504Z,0
2018-04-26T02:49:50.830Z,0
2018-04-26T02:50:50.491Z,0
2018-04-26T02:51:50.727Z,0
2018-04-26T02:52:49.945Z,0
2018-04-26T02:53:50.445Z,0
2018-04-26T02:54:50.713Z,0
2018-04-26T02:55:50.432Z,0
2018-04-26T02:56:49.902Z,0
2018-04-26T02:57:50.891Z,0
2018-04-26T02:58:50.665Z,0
2018-04-26T02:59:50.380Z,0
2018-04-26T03:00:50.129Z,0
2018-04-26T03:01:50.369Z,0
2018-04-26T03:02:50.579Z,0
2018-04-26T03:03:50.631Z,0
2018-04-26T03:04:49.823Z,0
2018-04-26T03:05:50.061Z,0
2018-04-26T03:06:50.573Z,0
2018-04-26T03:07:49.793Z,0
2018-04-26T03:08:50.046Z,0
2018-04-26T03:09:49.767Z,0
2018-04-26T03:10:50.009Z,0
2018-04-26T03:11:50.270Z,0
2018-04-26T03:12:50.499Z,0
2018-04-26T03:13:50.235Z,0
2018-04-26T03:14:49.704Z,0
2018-04-26T03:15:49.968Z,0
2018-04-26T03:16:51.286Z,0
2018-04-26T03:17:49.932Z,0
2018-04-26T03:18:49.916Z,0
2018-04-26T03:19:50.179Z,0
2018-04-26T03:20:50.422Z,0
2018-04-26T03:21:50.146Z,0
2018-04-26T03:22:50.391Z,0
2018-04-26T03:23:50.378Z,0
2018-04-26T03:24:50.106Z,0
2018-04-26T03:25:50.104Z,0
2018-04-26T03:26:50.095Z,0
2018-04-26T03:27:49.562Z,0
2018-04-26T03:28:50.067Z,0
2018-04-26T03:29:50.555Z,0
2018-04-26T03:30:50.045Z,0
2018-04-26T03:31:49.783Z,0
2018-04-26T03:32:49.512Z,0
2018-04-26T03:33:49.758Z,0
2018-04-26T03:34:50.016Z,0
2018-04-26T03:35:49.734Z,0
2018-04-26T03:36:49.980Z,0
2018-04-26T03:37:49.968Z,0
2018-04-26T03:38:49.976Z,0
2018-04-26T03:39:50.016Z,0
2018-04-26T03:40:49.684Z,0
2018-04-26T03:41:49.676Z,0
2018-04-26T03:42:50.173Z,0
2018-04-26T03:43:49.653Z,0
2018-04-26T03:44:49.639Z,0
2018-04-26T03:45:50.143Z,0
2018-04-26T03:46:49.605Z,0
2018-04-26T03:47:49.350Z,0
2018-04-26T03:48:50.105Z,0
2018-04-26T03:49:49.582Z,0
2018-04-26T03:50:50.095Z,0
2018-04-26T03:51:50.075Z,5
2018-04-26T03:52:49.805Z,5
2018-04-26T03:53:50.046Z,5
2018-04-26T03:54:49.789Z,5
2018-04-26T03:55:49.778Z,5
2018-04-26T03:56:49.761Z,5
2018-04-26T03:57:50.018Z,5
2018-04-26T03:58:49.817Z,5
2018-04-26T03:59:49.738Z,10
2018-04-26T04:00:49.464Z,10
2018-04-26T04:01:49.211Z,10
2018-04-26T04:02:49.698Z,10
2018-04-26T04:03:49.953Z,10
2018-04-26T04:04:49.416Z,10
2018-04-26T04:05:49.666Z,15
2018-04-26T04:06:49.652Z,15
2018-04-26T04:07:49.910Z,15
2018-04-26T04:08:49.902Z,15
2018-04-26T04:09:49.880Z,15
2018-04-26T04:10:49.347Z,20
2018-04-26T04:11:49.597Z,20
2018-04-26T04:12:49.332Z,20
2018-04-26T04:13:49.500Z,25
2018-04-26T04:14:49.571Z,25
2018-04-26T04:15:49.807Z,25
2018-04-26T04:16:49.558Z,25
2018-04-26T04:17:49.289Z,30
2018-04-26T04:18:49.548Z,30
2018-04-26T04:19:49.505Z,30
2018-04-26T04:20:49.757Z,35
2018-04-26T04:21:49.841Z,35
2018-04-26T04:22:49.218Z,40
2018-04-26T04:23:49.684Z,45
2018-04-26T04:24:49.451Z,50
2018-04-26T04:25:48.926Z,50
2018-04-26T04:26:49.432Z,55
2018-04-26T04:27:49.171Z,55
2018-04-26T04:28:49.668Z,55
2018-04-26T04:29:49.653Z,65
2018-04-26T04:30:49.388Z,65
2018-04-26T04:31:49.376Z,55
2018-04-26T04:32:49.591Z,50
2018-04-26T04:33:49.092Z,55
2018-04-26T04:34:49.340Z,55
2018-04-26T04:35:49.334Z,50
2018-04-26T04:36:49.064Z,50
2018-04-26T04:37:49.102Z,45
2018-04-26T04:38:49.574Z,45
2018-04-26T04:39:49.315Z,50
2018-04-26T04:40:49.285Z,50
2018-04-26T04:41:49.272Z,55
2018-04-26T04:42:49.278Z,60
2018-04-26T04:43:49.501Z,75
2018-04-26T04:44:48.978Z,75
2018-04-26T04:45:48.964Z,65
2018-04-26T04:46:49.470Z,65
2018-04-26T04:47:49.198Z,65
2018-04-26T04:48:49.186Z,75
2018-04-26T04:49:49.180Z,85
2018-04-26T04:50:49.627Z,85
2018-04-26T04:51:49.172Z,70
2018-04-26T04:52:49.406Z,65
2018-04-26T04:53:49.409Z,60
2018-04-26T04:54:48.863Z,70
2018-04-26T04:55:48.597Z,75
2018-04-26T04:56:48.840Z,90
2018-04-26T04:57:48.834Z,105
2018-04-26T04:58:49.351Z,110
2018-04-26T04:59:49.324Z,115
2018-04-26T05:00:49.338Z,135
2018-04-26T05:01:49.313Z,125
2018-04-26T05:02:49.307Z,105
2018-04-26T05:03:49.350Z,95
2018-04-26T05:04:49.267Z,95
2018-04-26T05:05:49.024Z,100
2018-04-26T05:06:49.260Z,105
2018-04-26T05:07:48.731Z,120
2018-04-26T05:08:48.200Z,125
2018-04-26T05:09:48.964Z,125
2018-04-26T05:10:48.436Z,140
2018-04-26T05:11:48.693Z,155
2018-04-26T05:12:49.188Z,130
2018-04-26T05:13:49.436Z,125
2018-04-26T05:14:48.926Z,155
2018-04-26T05:15:48.902Z,170
2018-04-26T05:16:48.899Z,160
2018-04-26T05:17:48.878Z,155
2018-04-26T05:18:48.870Z,175
2018-04-26T05:19:49.521Z,190
2018-04-26T05:20:49.131Z,185
2018-04-26T05:21:48.837Z,190
2018-04-26T05:22:49.091Z,195
2018-04-26T05:23:48.562Z,200
2018-04-26T05:24:49.030Z,210
2018-04-26T05:25:49.431Z,200
2018-04-26T05:26:49.044Z,185
2018-04-26T05:27:49.052Z,175
2018-04-26T05:28:49.242Z,175
2018-04-26T05:29:48.757Z,180
2018-04-26T05:30:49.023Z,180
2018-04-26T05:31:48.647Z,190
2018-04-26T05:32:48.728Z,185
2018-04-26T05:33:48.717Z,170
2018-04-26T05:34:48.979Z,165
2018-04-26T05:35:48.185Z,160
2018-04-26T05:36:48.692Z,180
2018-04-26T05:37:48.638Z,175
2018-04-26T05:38:48.667Z,185
2018-04-26T05:39:48.911Z,205
2018-04-26T05:40:48.880Z,190
2018-04-26T05:41:48.380Z,160
2018-04-26T05:42:48.632Z,175
2018-04-26T05:43:48.618Z,150
2018-04-26T05:44:48.623Z,165
2018-04-26T05:45:48.347Z,180
2018-04-26T05:46:48.330Z,140
2018-04-26T05:47:48.862Z,125
2018-04-26T05:48:48.590Z,150
2018-04-26T05:49:48.830Z,150
2018-04-26T05:50:48.821Z,110
2018-04-26T05:51:48.557Z,110
2018-04-26T05:52:48.787Z,125
2018-04-26T05:53:48.528Z,135
2018-04-26T05:54:48.515Z,170
2018-04-26T05:55:48.780Z,190
2018-04-26T05:56:48.496Z,200
2018-04-26T05:57:48.483Z,180
2018-04-26T05:58:48.571Z,190
2018-04-26T05:59:47.950Z,185
2018-04-26T06:00:48.474Z,160
2018-04-26T06:01:48.217Z,175
2018-04-26T06:02:48.438Z,185
2018-04-26T06:03:49.015Z,175
2018-04-26T06:04:48.703Z,160
2018-04-26T06:05:48.675Z,170
2018-04-26T06:06:48.400Z,180
2018-04-26T06:07:48.646Z,200
2018-04-26T06:08:48.635Z,200
2018-04-26T06:09:48.646Z,195
2018-04-26T06:10:48.361Z,185
2018-04-26T06:11:48.298Z,180
2018-04-26T06:12:48.088Z,175
2018-04-26T06:13:48.328Z,175
2018-04-26T06:14:48.067Z,165
2018-04-26T06:15:48.589Z,175
2018-04-26T06:16:48.588Z,175
2018-04-26T06:17:48.314Z,185
2018-04-26T06:18:48.040Z,180
2018-04-26T06:19:48.547Z,180
2018-04-26T06:21:20.368Z,185
2018-04-26T06:21:47.997Z,205
2018-04-26T06:22:47.729Z,245
2018-04-26T06:23:48.252Z,275
2018-04-26T06:24:48.485Z,265
2018-04-26T06:25:48.214Z,300
2018-04-26T06:26:48.479Z,250
2018-04-26T06:27:47.702Z,260
2018-04-26T06:28:48.267Z,190
2018-04-26T06:29:48.438Z,280
2018-04-26T06:30:48.190Z,265
2018-04-26T06:31:48.161Z,265
2018-04-26T06:32:47.891Z,230
2018-04-26T06:33:48.403Z,195
2018-04-26T06:34:48.151Z,250
2018-04-26T06:35:47.871Z,295
2018-04-26T06:36:47.669Z,260
2018-04-26T06:37:47.861Z,230
2018-04-26T06:38:47.837Z,245
2018-04-26T06:39:48.082Z,170
2018-04-26T06:40:48.098Z,265
2018-04-26T06:41:48.352Z,155
2018-04-26T06:42:48.056Z,265
2018-04-26T06:43:48.052Z,200
2018-04-26T06:44:47.808Z,225
2018-04-26T06:45:48.033Z,240
2018-04-26T06:46:48.047Z,285
2018-04-26T06:47:48.451Z,265
2018-04-26T06:48:47.747Z,270
2018-04-26T06:49:47.961Z,305
2018-04-26T06:50:48.011Z,315
2018-04-26T06:51:47.984Z,145
2018-04-26T06:52:47.715Z,320
2018-04-26T06:53:47.706Z,320
2018-04-26T06:54:47.704Z,140
2018-04-26T06:55:48.438Z,330
2018-04-26T06:56:48.198Z,350
2018-04-26T06:57:48.019Z,375
2018-04-26T06:58:47.931Z,350
2018-04-26T06:59:48.187Z,330
2018-04-26T07:00:47.923Z,125
2018-04-26T07:01:47.906Z,320
2018-04-26T07:02:47.898Z,335
2018-04-26T07:03:48.148Z,355
2018-04-26T07:04:48.138Z,365
2018-04-26T07:05:48.478Z,405
2018-04-26T07:06:48.153Z,165
2018-04-26T07:07:47.357Z,350
2018-04-26T07:08:48.120Z,125
2018-04-26T07:09:47.601Z,370
2018-04-26T07:10:48.118Z,410
2018-04-26T07:11:47.987Z,440
2018-04-26T07:12:47.823Z,390
2018-04-26T07:13:47.859Z,345
2018-04-26T07:14:48.090Z,295
2018-04-26T07:15:47.830Z,245
2018-04-26T07:16:47.568Z,165
2018-04-26T07:17:47.299Z,245
2018-04-26T07:18:47.294Z,220
2018-04-26T07:19:47.880Z,290
2018-04-26T07:20:47.549Z,260
2018-04-26T07:21:47.882Z,220
2018-04-26T07:22:47.794Z,300
2018-04-26T07:23:48.041Z,300
2018-04-26T07:24:48.056Z,205
2018-04-26T07:25:47.808Z,225
2018-04-26T07:26:48.035Z,335
2018-04-26T07:27:47.776Z,290
2018-04-26T07:28:47.516Z,250
2018-04-26T07:29:48.042Z,260
2018-04-26T07:30:48.030Z,260
2018-04-26T07:31:47.756Z,255
2018-04-26T07:32:48.014Z,235
2018-04-26T07:33:47.488Z,205
2018-04-26T07:34:47.822Z,235
2018-04-26T07:35:47.757Z,295
2018-04-26T07:36:47.754Z,260
2018-04-26T07:37:47.475Z,225
2018-04-26T07:38:47.208Z,195
2018-04-26T07:39:47.465Z,180
2018-04-26T07:40:47.204Z,205
2018-04-26T07:41:47.457Z,225
2018-04-26T07:42:47.712Z,230
2018-04-26T07:43:47.702Z,245
2018-04-26T07:44:48.001Z,250
2018-04-26T07:45:47.957Z,200
2018-04-26T07:46:47.430Z,155
2018-04-26T07:47:47.682Z,185
2018-04-26T07:48:47.428Z,150
2018-04-26T07:49:47.670Z,135
2018-04-26T07:50:47.915Z,160
2018-04-26T07:51:47.653Z,195
2018-04-26T07:52:47.650Z,170
2018-04-26T07:53:47.900Z,200
2018-04-26T07:54:47.903Z,220
2018-04-26T07:55:47.369Z,260
2018-04-26T07:56:47.358Z,340
2018-04-26T07:57:47.887Z,365
2018-04-26T07:58:47.863Z,315
2018-04-26T07:59:47.080Z,360
2018-04-26T08:00:47.590Z,325
2018-04-26T08:01:48.290Z,310
2018-04-26T08:02:47.825Z,315
2018-04-26T08:03:47.562Z,375
2018-04-26T08:04:47.825Z,380
2018-04-26T08:05:47.808Z,315
2018-04-26T08:06:47.798Z,360
2018-04-26T08:07:47.532Z,415
2018-04-26T08:08:47.534Z,390
2018-04-26T08:09:47.779Z,350
2018-04-26T08:10:47.804Z,355
2018-04-26T08:11:48.249Z,365
2018-04-26T08:12:47.253Z,370
2018-04-26T08:13:47.493Z,370
2018-04-26T08:14:47.227Z,335
2018-04-26T08:15:47.729Z,305
2018-04-26T08:16:47.741Z,280
2018-04-26T08:17:47.720Z,270
2018-04-26T08:18:47.722Z,255
2018-04-26T08:19:47.764Z,275
2018-04-26T08:20:47.183Z,295
2018-04-26T08:21:47.425Z,295
2018-04-26T08:22:47.157Z,325
2018-04-26T08:23:47.659Z,340
2018-04-26T08:24:47.725Z,295
2018-04-26T08:25:46.871Z,285
2018-04-26T08:26:47.383Z,310
2018-04-26T08:27:46.855Z,310
2018-04-26T08:28:47.123Z,300
2018-04-26T08:29:47.356Z,300
2018-04-26T08:30:47.622Z,330
2018-04-26T08:31:47.337Z,355
2018-04-26T08:32:47.595Z,295
2018-04-26T08:33:47.599Z,240
2018-04-26T08:34:47.054Z,190
2018-04-26T08:35:47.308Z,165
2018-04-26T08:36:47.343Z,170
2018-04-26T08:37:47.027Z,160
2018-04-26T08:38:47.281Z,115
2018-04-26T08:39:46.494Z,105
2018-04-26T08:40:47.257Z,150
2018-04-26T08:41:47.297Z,235
2018-04-26T08:42:47.500Z,290
2018-04-26T08:43:47.491Z,255
2018-04-26T08:44:47.487Z,185
2018-04-26T08:45:47.332Z,200
2018-04-26T08:46:47.542Z,295
2018-04-26T08:47:47.458Z,375
2018-04-26T08:48:47.448Z,395
2018-04-26T08:49:47.177Z,335
2018-04-26T08:50:47.165Z,245
2018-04-26T08:51:47.163Z,195
2018-04-26T08:52:46.887Z,165
2018-04-26T08:53:47.153Z,200
2018-04-26T08:54:47.130Z,205
2018-04-26T08:55:46.863Z,215
2018-04-26T08:56:47.385Z,245
2018-04-26T08:57:47.365Z,285
2018-04-26T08:58:47.090Z,285
2018-04-26T08:59:47.302Z,240
2018-04-26T09:00:47.076Z,190
2018-04-26T09:01:47.057Z,160
2018-04-26T09:02:47.060Z,160
2018-04-26T09:03:47.049Z,150
2018-04-26T09:04:47.038Z,175
2018-04-26T09:05:47.025Z,225
2018-04-26T09:06:47.309Z,245
2018-04-26T09:07:47.008Z,270
2018-04-26T09:08:46.997Z,290
2018-04-26T09:09:47.017Z,320
2018-04-26T09:10:47.237Z,315
2018-04-26T09:11:47.232Z,335
2018-04-26T09:12:46.701Z,320
2018-04-26T09:13:46.959Z,340
2018-04-26T09:14:46.689Z,360
2018-04-26T09:15:47.055Z,360
2018-04-26T09:16:46.926Z,335
2018-04-26T09:17:46.918Z,290
2018-04-26T09:18:46.910Z,305
2018-04-26T09:19:47.152Z,340
2018-04-26T09:20:46.897Z,365
2018-04-26T09:21:46.875Z,425
2018-04-26T09:22:46.620Z,475
2018-04-26T09:23:46.860Z,440
2018-04-26T09:24:46.593Z,405
2018-04-26T09:25:47.123Z,390
2018-04-26T09:26:46.583Z,405
2018-04-26T09:27:46.825Z,405
2018-04-26T09:28:46.817Z,390
2018-04-26T09:29:46.808Z,395
2018-04-26T09:30:46.793Z,390
2018-04-26T09:31:46.805Z,420
2018-04-26T09:32:46.782Z,405
2018-04-26T09:33:46.519Z,410
2018-04-26T09:34:47.091Z,460
2018-04-26T09:35:46.497Z,460
2018-04-26T09:36:46.743Z,465
2018-04-26T09:37:46.735Z,440
2018-04-26T09:38:47.413Z,430
2018-04-26T09:39:46.457Z,435
2018-04-26T09:40:47.030Z,410
2018-04-26T09:41:46.698Z,385
2018-04-26T09:42:46.436Z,350
2018-04-26T09:43:46.424Z,315
2018-04-26T09:44:46.418Z,295
2018-04-26T09:45:46.873Z,305
2018-04-26T09:46:46.416Z,355
2018-04-26T09:47:46.395Z,385
2018-04-26T09:48:47.027Z,400
2018-04-26T09:49:46.889Z,405
2018-04-26T09:50:46.373Z,345
2018-04-26T09:51:46.365Z,330
2018-04-26T09:52:46.852Z,265
2018-04-26T09:53:46.599Z,265
2018-04-26T09:54:46.596Z,280
2018-04-26T09:55:46.848Z,325
2018-04-26T09:56:46.322Z,355
2018-04-26T09:57:46.571Z,385
2018-04-26T09:58:47.004Z,380
2018-04-26T09:59:46.553Z,370
2018-04-26T10:00:46.817Z,320
2018-04-26T10:01:47.120Z,310
2018-04-26T10:02:46.783Z,355
2018-04-26T10:03:46.269Z,365
2018-04-26T10:04:46.255Z,370
2018-04-26T10:05:46.513Z,400
2018-04-26T10:06:46.238Z,380
2018-04-26T10:07:46.754Z,360
2018-04-26T10:08:46.638Z,310
2018-04-26T10:09:46.492Z,310
2018-04-26T10:10:46.213Z,315
2018-04-26T10:11:46.204Z,340
2018-04-26T10:12:46.199Z,395
2018-04-26T10:13:46.448Z,425
2018-04-26T10:14:46.442Z,460
2018-04-26T10:15:46.711Z,455
2018-04-26T10:16:46.464Z,405
2018-04-26T10:17:46.439Z,445
2018-04-26T10:18:46.678Z,440
2018-04-26T10:19:46.408Z,410
2018-04-26T10:20:46.664Z,470
2018-04-26T10:21:46.142Z,455
2018-04-26T10:22:46.389Z,460
2018-04-26T10:23:46.391Z,495
2018-04-26T10:24:46.805Z,495
2018-04-26T10:25:45.852Z,480
2018-04-26T10:26:46.112Z,455
2018-04-26T10:27:46.364Z,375
2018-04-26T10:28:45.834Z,385
2018-04-26T10:29:46.345Z,365
2018-04-26T10:30:45.819Z,300
2018-04-26T10:31:46.338Z,275
2018-04-26T10:32:46.325Z,225
2018-04-26T10:33:45.798Z,230
2018-04-26T10:34:46.576Z,195
2018-04-26T10:35:46.306Z,260
2018-04-26T10:36:46.043Z,280
2018-04-26T10:37:46.299Z,330
2018-04-26T10:38:46.284Z,410
2018-04-26T10:39:46.281Z,445
2018-04-26T10:40:45.757Z,455
2018-04-26T10:41:46.270Z,470
2018-04-26T10:42:46.512Z,475
2018-04-26T10:43:46.250Z,455
2018-04-26T10:44:46.520Z,440
2018-04-26T10:45:45.723Z,425
2018-04-26T10:46:46.235Z,450
2018-04-26T10:47:46.486Z,455
2018-04-26T10:48:46.221Z,495
2018-04-26T10:49:46.218Z,460
2018-04-26T10:50:46.208Z,450
2018-04-26T10:51:46.461Z,430
2018-04-26T10:52:45.942Z,440
2018-04-26T10:53:45.674Z,420
2018-04-26T10:54:46.190Z,350
2018-04-26T10:55:46.178Z,290
2018-04-26T10:56:46.175Z,275
2018-04-26T10:57:46.434Z,270
2018-04-26T10:58:46.449Z,270
2018-04-26T10:59:45.904Z,330
2018-04-26T11:00:45.891Z,380
2018-04-26T11:01:46.228Z,365
2018-04-26T11:02:46.148Z,280
2018-04-26T11:03:46.572Z,225
2018-04-26T11:04:45.876Z,215
2018-04-26T11:05:45.864Z,185
2018-04-26T11:06:46.382Z,165
2018-04-26T11:07:46.585Z,160
2018-04-26T11:08:46.106Z,150
2018-04-26T11:09:45.837Z,145
2018-04-26T11:10:46.348Z,165
2018-04-26T11:11:46.673Z,165
2018-04-26T11:12:45.832Z,170
2018-04-26T11:13:46.325Z,155
2018-04-26T11:14:46.059Z,150
2018-04-26T11:15:46.745Z,150
2018-04-26T11:16:46.317Z,95
2018-04-26T11:17:46.044Z,85
2018-04-26T11:18:45.779Z,90
2018-04-26T11:19:46.028Z,100
2018-04-26T11:20:46.022Z,135
2018-04-26T11:21:46.007Z,160
2018-04-26T11:22:46.256Z,175
2018-04-26T11:23:45.733Z,180
2018-04-26T11:24:45.993Z,185
2018-04-26T11:25:45.975Z,210
2018-04-26T11:26:45.973Z,245
2018-04-26T11:27:45.962Z,280
2018-04-26T11:28:45.432Z,305
2018-04-26T11:29:46.195Z,335
2018-04-26T11:30:45.924Z,355
2018-04-26T11:31:46.178Z,375
2018-04-26T11:32:45.907Z,405
2018-04-26T11:33:45.659Z,415
2018-04-26T11:34:45.631Z,420
2018-04-26T11:35:45.363Z,415
2018-04-26T11:36:45.872Z,380
2018-04-26T11:37:46.147Z,330
2018-04-26T11:38:45.854Z,245
2018-04-26T11:39:45.839Z,185
2018-04-26T11:40:45.833Z,155
2018-04-26T11:41:45.562Z,150
2018-04-26T11:42:45.815Z,140
2018-04-26T11:43:45.808Z,140
2018-04-26T11:44:45.534Z,140
2018-04-26T11:45:45.777Z,140
2018-04-26T11:46:46.264Z,140
2018-04-26T11:47:45.768Z,135
2018-04-26T11:48:45.497Z,135
2018-04-26T11:49:45.741Z,135
2018-04-26T11:50:45.473Z,135
2018-04-26T11:51:45.731Z,140
2018-04-26T11:52:45.469Z,145
2018-04-26T11:53:45.447Z,150
2018-04-26T11:54:45.440Z,160
2018-04-26T11:55:45.949Z,170
2018-04-26T11:56:45.683Z,185
2018-04-26T11:57:46.123Z,195
2018-04-26T11:58:45.921Z,200
2018-04-26T11:59:45.672Z,205
2018-04-26T12:00:45.639Z,210
2018-04-26T12:01:45.640Z,210
2018-04-26T12:02:45.860Z,220
2018-04-26T12:03:45.611Z,230
2018-04-26T12:04:45.342Z,235
2018-04-26T12:05:44.820Z,240
2018-04-26T12:06:45.588Z,245
2018-04-26T12:07:46.298Z,240
2018-04-26T12:08:45.826Z,250
2018-04-26T12:09:45.042Z,270
2018-04-26T12:10:45.297Z,305
2018-04-26T12:11:45.287Z,320
2018-04-26T12:12:45.796Z,325
2018-04-26T12:13:45.274Z,380
2018-04-26T12:14:45.003Z,425
2018-04-26T12:15:45.509Z,430
2018-04-26T12:16:45.504Z,435
2018-04-26T12:17:45.496Z,420
2018-04-26T12:18:45.621Z,380
2018-04-26T12:19:45.220Z,335
2018-04-26T12:20:45.732Z,305
2018-04-26T12:21:45.464Z,315
2018-04-26T12:22:45.719Z,350
2018-04-26T12:23:45.453Z,340
2018-04-26T12:24:45.707Z,310
2018-04-26T12:25:45.695Z,270
2018-04-26T12:26:45.433Z,225
2018-04-26T12:27:45.425Z,180
2018-04-26T12:28:45.676Z,135
2018-04-26T12:29:45.413Z,110
2018-04-26T12:30:45.655Z,135
2018-04-26T12:31:45.396Z,185
2018-04-26T12:32:45.127Z,205
2018-04-26T12:33:45.118Z,195
2018-04-26T12:34:45.381Z,165
2018-04-26T12:35:45.622Z,165
2018-04-26T12:36:45.097Z,195
2018-04-26T12:37:45.342Z,255
2018-04-26T12:38:45.374Z,305
2018-04-26T12:39:45.334Z,265
2018-04-26T12:40:45.323Z,205
2018-04-26T12:41:44.543Z,155
2018-04-26T12:42:45.312Z,125
2018-04-26T12:43:45.556Z,110
2018-04-26T12:44:45.030Z,125
2018-04-26T12:45:45.287Z,160
2018-04-26T12:46:45.533Z,200
2018-04-26T12:47:45.014Z,245
2018-04-26T12:48:44.747Z,275
2018-04-26T12:49:44.994Z,265
2018-04-26T12:50:45.248Z,245
2018-04-26T12:51:44.974Z,220
2018-04-26T12:52:45.489Z,205
2018-04-26T12:53:45.219Z,190
2018-04-26T12:54:45.220Z,180
2018-04-26T12:55:44.689Z,190
2018-04-26T12:56:45.204Z,210
2018-04-26T12:57:45.263Z,220
2018-04-26T12:58:45.177Z,225
2018-04-26T12:59:45.166Z,225
2018-04-26T13:00:45.162Z,210
2018-04-26T13:01:45.420Z,200
2018-04-26T13:02:45.168Z,185
2018-04-26T13:03:45.140Z,170
2018-04-26T13:04:44.867Z,130
2018-04-26T13:05:45.142Z,140
2018-04-26T13:06:45.108Z,210
2018-04-26T13:07:44.846Z,295
2018-04-26T13:08:44.842Z,375
2018-04-26T13:09:45.084Z,395
2018-04-26T13:10:44.865Z,375
2018-04-26T13:11:45.071Z,320
2018-04-26T13:12:45.189Z,270
2018-04-26T13:13:44.536Z,205
2018-04-26T13:14:45.304Z,155
2018-04-26T13:15:45.059Z,120
2018-04-26T13:16:45.284Z,100
2018-04-26T13:17:44.503Z,100
2018-04-26T13:18:45.025Z,120
2018-04-26T13:19:45.007Z,155
2018-04-26T13:20:44.733Z,210
2018-04-26T13:21:45.245Z,265
2018-04-26T13:22:45.010Z,310
2018-04-26T13:23:45.353Z,340
2018-04-26T13:24:44.960Z,355
2018-04-26T13:25:44.951Z,370
2018-04-26T13:26:45.203Z,405
2018-04-26T13:27:44.932Z,425
2018-04-26T13:28:44.663Z,440
2018-04-26T13:29:44.973Z,425
2018-04-26T13:30:44.906Z,420
2018-04-26T13:31:44.639Z,405
2018-04-26T13:32:44.634Z,365
2018-04-26T13:33:44.618Z,340
2018-04-26T13:34:45.138Z,325
2018-04-26T13:35:44.864Z,320
2018-04-26T13:36:44.595Z,330
2018-04-26T13:37:44.329Z,345
2018-04-26T13:38:44.854Z,370
2018-04-26T13:39:45.061Z,385
2018-04-26T13:40:45.073Z,395
2018-04-26T13:41:45.261Z,395
2018-04-26T13:42:45.063Z,385
2018-04-26T13:43:44.794Z,370
2018-04-26T13:44:44.533Z,365
2018-04-26T13:45:44.787Z,375
2018-04-26T13:46:44.771Z,395
2018-04-26T13:47:44.766Z,385
2018-04-26T13:48:44.755Z,325
2018-04-26T13:49:44.756Z,245
2018-04-26T13:50:44.219Z,195
2018-04-26T13:51:44.733Z,170
2018-04-26T13:52:44.724Z,160
2018-04-26T13:53:44.495Z,145
2018-04-26T13:54:44.705Z,150
2018-04-26T13:55:44.714Z,165
2018-04-26T13:56:44.433Z,185
2018-04-26T13:57:44.683Z,230
2018-04-26T13:58:44.693Z,235
2018-04-26T13:59:44.672Z,260
2018-04-26T14:00:44.872Z,275
2018-04-26T14:01:44.926Z,305
2018-04-26T14:02:44.130Z,300
2018-04-26T14:03:44.379Z,265
2018-04-26T14:04:44.111Z,265